Terminal Aerodrome Forecast
Issued by NWS

Home | Current Version | Previous Version | Text Only | Print | Product List | Glossary On
Versions: 1 2 3 4 5 6 7 8 9 10 11 12 13
000
FTUS43 KOAX 230200 AAA
TAFSNY
TAF AMD
KSNY 230219Z 2302/2324 17010KT P6SM SCT120
      TEMPO 2303/2304 TSRA BKN050CB
     FM230800 24009KT P6SM SCT150
     FM231800 31012G19KT P6SM SCT080=

USA.gov is the U.S. government's official web portal to all federal, state and local government web resources and services.